sensor_id;sensor_type;location;lat;lon;timestamp;P1;durP1;ratioP1;P2;durP2;ratioP2
10029;SDS011;5055;52.054;8.524;2024-03-08T00:00:31;0.80;;;0.80;;
10029;SDS011;5055;52.054;8.524;2024-03-08T00:02:59;1.00;;;1.00;;
10029;SDS011;5055;52.054;8.524;2024-03-08T00:05:29;0.90;;;0.90;;
10029;SDS011;5055;52.054;8.524;2024-03-08T00:07:59;0.60;;;0.60;;
10029;SDS011;5055;52.054;8.524;2024-03-08T00:10:27;0.70;;;0.70;;
10029;SDS011;5055;52.054;8.524;2024-03-08T00:12:56;0.60;;;0.60;;
10029;SDS011;5055;52.054;8.524;2024-03-08T00:15:25;0.83;;;0.83;;
10029;SDS011;5055;52.054;8.524;2024-03-08T00:17:55;0.97;;;0.97;;
10029;SDS011;5055;52.054;8.524;2024-03-08T00:20:24;0.60;;;0.60;;
10029;SDS011;5055;52.054;8.524;2024-03-08T00:22:52;0.80;;;0.80;;
10029;SDS011;5055;52.054;8.524;2024-03-08T00:25:21;1.00;;;1.00;;
10029;SDS011;5055;52.054;8.524;2024-03-08T00:27:50;0.80;;;0.80;;
10029;SDS011;5055;52.054;8.524;2024-03-08T00:30:22;0.80;;;0.80;;
10029;SDS011;5055;52.054;8.524;2024-03-08T00:32:51;0.70;;;0.70;;
10029;SDS011;5055;52.054;8.524;2024-03-08T00:35:19;0.60;;;0.60;;
10029;SDS011;5055;52.054;8.524;2024-03-08T00:37:49;0.87;;;0.87;;
10029;SDS011;5055;52.054;8.524;2024-03-08T00:40:17;0.80;;;0.80;;
10029;SDS011;5055;52.054;8.524;2024-03-08T00:42:47;0.63;;;0.63;;
10029;SDS011;5055;52.054;8.524;2024-03-08T00:45:15;0.60;;;0.60;;
10029;SDS011;5055;52.054;8.524;2024-03-08T00:47:43;0.80;;;0.80;;
10029;SDS011;5055;52.054;8.524;2024-03-08T00:50:11;0.70;;;0.70;;
10029;SDS011;5055;52.054;8.524;2024-03-08T00:52:40;0.70;;;0.70;;
10029;SDS011;5055;52.054;8.524;2024-03-08T00:55:08;0.73;;;0.73;;
10029;SDS011;5055;52.054;8.524;2024-03-08T00:57:37;1.20;;;1.20;;
10029;SDS011;5055;52.054;8.524;2024-03-08T01:00:08;0.73;;;0.73;;
10029;SDS011;5055;52.054;8.524;2024-03-08T01:02:39;1.10;;;1.10;;
10029;SDS011;5055;52.054;8.524;2024-03-08T01:05:07;0.90;;;0.90;;
10029;SDS011;5055;52.054;8.524;2024-03-08T01:07:36;1.10;;;1.10;;
10029;SDS011;5055;52.054;8.524;2024-03-08T01:10:04;0.90;;;0.90;;
10029;SDS011;5055;52.054;8.524;2024-03-08T01:12:36;0.93;;;0.93;;
10029;SDS011;5055;52.054;8.524;2024-03-08T01:15:04;0.80;;;0.80;;
10029;SDS011;5055;52.054;8.524;2024-03-08T01:17:35;1.00;;;1.00;;
10029;SDS011;5055;52.054;8.524;2024-03-08T01:20:04;0.93;;;0.93;;
10029;SDS011;5055;52.054;8.524;2024-03-08T01:22:32;0.90;;;0.90;;
10029;SDS011;5055;52.054;8.524;2024-03-08T01:25:00;0.67;;;0.67;;
10029;SDS011;5055;52.054;8.524;2024-03-08T01:27:31;0.90;;;0.90;;
10029;SDS011;5055;52.054;8.524;2024-03-08T01:29:59;0.90;;;0.90;;
10029;SDS011;5055;52.054;8.524;2024-03-08T01:32:27;0.50;;;0.50;;
10029;SDS011;5055;52.054;8.524;2024-03-08T01:34:57;1.00;;;1.00;;
10029;SDS011;5055;52.054;8.524;2024-03-08T01:37:25;0.70;;;0.70;;
10029;SDS011;5055;52.054;8.524;2024-03-08T01:39:53;0.63;;;0.63;;
10029;SDS011;5055;52.054;8.524;2024-03-08T01:42:20;0.60;;;0.60;;
10029;SDS011;5055;52.054;8.524;2024-03-08T01:44:49;0.70;;;0.70;;
10029;SDS011;5055;52.054;8.524;2024-03-08T01:47:17;0.97;;;0.97;;
10029;SDS011;5055;52.054;8.524;2024-03-08T01:49:46;0.97;;;0.97;;
10029;SDS011;5055;52.054;8.524;2024-03-08T01:52:16;1.20;;;1.20;;
10029;SDS011;5055;52.054;8.524;2024-03-08T01:54:49;1.10;;;1.10;;
10029;SDS011;5055;52.054;8.524;2024-03-08T01:57:17;0.70;;;0.70;;
10029;SDS011;5055;52.054;8.524;2024-03-08T01:59:45;0.80;;;0.80;;
10029;SDS011;5055;52.054;8.524;2024-03-08T02:02:14;1.07;;;1.07;;
10029;SDS011;5055;52.054;8.524;2024-03-08T02:04:46;1.17;;;1.17;;
10029;SDS011;5055;52.054;8.524;2024-03-08T02:07:16;1.17;;;1.17;;
10029;SDS011;5055;52.054;8.524;2024-03-08T02:09:44;0.60;;;0.60;;
10029;SDS011;5055;52.054;8.524;2024-03-08T02:12:12;0.50;;;0.50;;
10029;SDS011;5055;52.054;8.524;2024-03-08T02:14:41;0.70;;;0.70;;
10029;SDS011;5055;52.054;8.524;2024-03-08T02:17:10;0.87;;;0.87;;
10029;SDS011;5055;52.054;8.524;2024-03-08T02:19:39;1.07;;;1.07;;
10029;SDS011;5055;52.054;8.524;2024-03-08T02:22:08;1.00;;;1.00;;
10029;SDS011;5055;52.054;8.524;2024-03-08T02:24:36;0.90;;;0.90;;
10029;SDS011;5055;52.054;8.524;2024-03-08T02:27:06;1.03;;;1.03;;
10029;SDS011;5055;52.054;8.524;2024-03-08T02:29:34;0.87;;;0.87;;
10029;SDS011;5055;52.054;8.524;2024-03-08T02:32:04;0.80;;;0.80;;
10029;SDS011;5055;52.054;8.524;2024-03-08T02:34:32;0.90;;;0.90;;
10029;SDS011;5055;52.054;8.524;2024-03-08T02:37:01;0.93;;;0.93;;
10029;SDS011;5055;52.054;8.524;2024-03-08T02:39:31;1.30;;;1.30;;
10029;SDS011;5055;52.054;8.524;2024-03-08T02:41:59;1.03;;;1.03;;
10029;SDS011;5055;52.054;8.524;2024-03-08T02:44:28;0.90;;;0.90;;
10029;SDS011;5055;52.054;8.524;2024-03-08T02:46:56;0.90;;;0.90;;
10029;SDS011;5055;52.054;8.524;2024-03-08T02:49:24;1.00;;;1.00;;
10029;SDS011;5055;52.054;8.524;2024-03-08T02:51:52;0.70;;;0.70;;
10029;SDS011;5055;52.054;8.524;2024-03-08T02:54:23;0.90;;;0.90;;
10029;SDS011;5055;52.054;8.524;2024-03-08T02:56:52;0.93;;;0.93;;
10029;SDS011;5055;52.054;8.524;2024-03-08T02:59:20;0.73;;;0.73;;
10029;SDS011;5055;52.054;8.524;2024-03-08T03:01:50;1.10;;;1.10;;
10029;SDS011;5055;52.054;8.524;2024-03-08T03:04:18;0.70;;;0.70;;
10029;SDS011;5055;52.054;8.524;2024-03-08T03:06:46;0.90;;;0.90;;
10029;SDS011;5055;52.054;8.524;2024-03-08T03:09:13;1.10;;;1.10;;
10029;SDS011;5055;52.054;8.524;2024-03-08T03:11:44;0.87;;;0.87;;
10029;SDS011;5055;52.054;8.524;2024-03-08T03:14:13;0.90;;;0.90;;
10029;SDS011;5055;52.054;8.524;2024-03-08T03:16:42;1.47;;;1.47;;
10029;SDS011;5055;52.054;8.524;2024-03-08T03:19:10;1.17;;;1.17;;
10029;SDS011;5055;52.054;8.524;2024-03-08T03:21:38;0.97;;;0.97;;
10029;SDS011;5055;52.054;8.524;2024-03-08T03:24:06;1.20;;;1.20;;
10029;SDS011;5055;52.054;8.524;2024-03-08T03:26:36;0.87;;;0.87;;
10029;SDS011;5055;52.054;8.524;2024-03-08T03:29:07;1.13;;;1.13;;
10029;SDS011;5055;52.054;8.524;2024-03-08T03:31:40;1.10;;;1.10;;
10029;SDS011;5055;52.054;8.524;2024-03-08T03:34:08;0.80;;;0.80;;
10029;SDS011;5055;52.054;8.524;2024-03-08T03:36:36;0.80;;;0.80;;
10029;SDS011;5055;52.054;8.524;2024-03-08T03:39:08;0.97;;;0.97;;
10029;SDS011;5055;52.054;8.524;2024-03-08T03:41:42;1.00;;;1.00;;
10029;SDS011;5055;52.054;8.524;2024-03-08T03:44:12;1.10;;;1.10;;
10029;SDS011;5055;52.054;8.524;2024-03-08T03:46:42;0.87;;;0.87;;
10029;SDS011;5055;52.054;8.524;2024-03-08T03:49:11;1.07;;;1.07;;
10029;SDS011;5055;52.054;8.524;2024-03-08T03:51:39;1.10;;;1.10;;
10029;SDS011;5055;52.054;8.524;2024-03-08T03:54:07;0.80;;;0.80;;
10029;SDS011;5055;52.054;8.524;2024-03-08T03:56:35;0.77;;;0.77;;
10029;SDS011;5055;52.054;8.524;2024-03-08T03:59:04;0.73;;;0.73;;
10029;SDS011;5055;52.054;8.524;2024-03-08T04:01:32;0.93;;;0.93;;
10029;SDS011;5055;52.054;8.524;2024-03-08T04:04:05;0.60;;;0.60;;
10029;SDS011;5055;52.054;8.524;2024-03-08T04:06:33;0.60;;;0.60;;
10029;SDS011;5055;52.054;8.524;2024-03-08T04:09:02;0.53;;;0.53;;
10029;SDS011;5055;52.054;8.524;2024-03-08T04:11:30;0.60;;;0.60;;
10029;SDS011;5055;52.054;8.524;2024-03-08T04:13:59;0.90;;;0.90;;
10029;SDS011;5055;52.054;8.524;2024-03-08T04:16:27;1.00;;;1.00;;
10029;SDS011;5055;52.054;8.524;2024-03-08T04:18:55;0.80;;;0.80;;
10029;SDS011;5055;52.054;8.524;2024-03-08T04:21:24;1.33;;;1.33;;
10029;SDS011;5055;52.054;8.524;2024-03-08T04:23:53;0.80;;;0.80;;
10029;SDS011;5055;52.054;8.524;2024-03-08T04:26:21;1.07;;;1.07;;
10029;SDS011;5055;52.054;8.524;2024-03-08T04:28:49;0.90;;;0.90;;
10029;SDS011;5055;52.054;8.524;2024-03-08T04:31:20;1.03;;;1.03;;
10029;SDS011;5055;52.054;8.524;2024-03-08T04:33:48;0.80;;;0.80;;
10029;SDS011;5055;52.054;8.524;2024-03-08T04:36:16;1.00;;;1.00;;
10029;SDS011;5055;52.054;8.524;2024-03-08T04:38:47;0.80;;;0.80;;
10029;SDS011;5055;52.054;8.524;2024-03-08T04:41:15;1.00;;;1.00;;
10029;SDS011;5055;52.054;8.524;2024-03-08T04:43:43;0.90;;;0.90;;
10029;SDS011;5055;52.054;8.524;2024-03-08T04:46:11;0.70;;;0.70;;
10029;SDS011;5055;52.054;8.524;2024-03-08T04:48:40;0.77;;;0.77;;
10029;SDS011;5055;52.054;8.524;2024-03-08T04:51:09;0.80;;;0.80;;
10029;SDS011;5055;52.054;8.524;2024-03-08T04:53:38;0.83;;;0.83;;
10029;SDS011;5055;52.054;8.524;2024-03-08T04:56:07;1.00;;;1.00;;
10029;SDS011;5055;52.054;8.524;2024-03-08T04:58:35;0.90;;;0.90;;
10029;SDS011;5055;52.054;8.524;2024-03-08T05:01:03;1.00;;;1.00;;
10029;SDS011;5055;52.054;8.524;2024-03-08T05:03:32;0.80;;;0.80;;
10029;SDS011;5055;52.054;8.524;2024-03-08T05:06:00;0.70;;;0.70;;
10029;SDS011;5055;52.054;8.524;2024-03-08T05:08:28;0.80;;;0.80;;
10029;SDS011;5055;52.054;8.524;2024-03-08T05:10:57;0.60;;;0.60;;
10029;SDS011;5055;52.054;8.524;2024-03-08T05:13:28;0.53;;;0.53;;
10029;SDS011;5055;52.054;8.524;2024-03-08T05:15:56;0.83;;;0.83;;
10029;SDS011;5055;52.054;8.524;2024-03-08T05:18:25;0.80;;;0.80;;
10029;SDS011;5055;52.054;8.524;2024-03-08T05:20:54;1.07;;;1.07;;
10029;SDS011;5055;52.054;8.524;2024-03-08T05:23:22;1.00;;;1.00;;
10029;SDS011;5055;52.054;8.524;2024-03-08T05:25:50;0.90;;;0.90;;
10029;SDS011;5055;52.054;8.524;2024-03-08T05:28:18;0.57;;;0.57;;
10029;SDS011;5055;52.054;8.524;2024-03-08T05:30:48;0.80;;;0.80;;
10029;SDS011;5055;52.054;8.524;2024-03-08T05:33:16;0.80;;;0.80;;
10029;SDS011;5055;52.054;8.524;2024-03-08T05:35:45;1.07;;;1.07;;
10029;SDS011;5055;52.054;8.524;2024-03-08T05:38:13;0.90;;;0.90;;
10029;SDS011;5055;52.054;8.524;2024-03-08T05:40:41;0.87;;;0.87;;
10029;SDS011;5055;52.054;8.524;2024-03-08T05:43:10;0.60;;;0.60;;
10029;SDS011;5055;52.054;8.524;2024-03-08T05:45:38;1.40;;;1.40;;
10029;SDS011;5055;52.054;8.524;2024-03-08T05:48:08;0.90;;;0.90;;
10029;SDS011;5055;52.054;8.524;2024-03-08T05:50:36;1.00;;;1.00;;
10029;SDS011;5055;52.054;8.524;2024-03-08T05:53:04;0.80;;;0.80;;
10029;SDS011;5055;52.054;8.524;2024-03-08T05:55:33;1.00;;;1.00;;
10029;SDS011;5055;52.054;8.524;2024-03-08T05:58:02;0.80;;;0.80;;
10029;SDS011;5055;52.054;8.524;2024-03-08T06:00:32;0.90;;;0.90;;
10029;SDS011;5055;52.054;8.524;2024-03-08T06:03:00;0.93;;;0.93;;
10029;SDS011;5055;52.054;8.524;2024-03-08T06:05:30;0.83;;;0.83;;
10029;SDS011;5055;52.054;8.524;2024-03-08T06:07:58;0.90;;;0.90;;
10029;SDS011;5055;52.054;8.524;2024-03-08T06:10:26;0.90;;;0.90;;
10029;SDS011;5055;52.054;8.524;2024-03-08T06:12:54;0.53;;;0.53;;
10029;SDS011;5055;52.054;8.524;2024-03-08T06:15:22;0.63;;;0.63;;
10029;SDS011;5055;52.054;8.524;2024-03-08T06:17:51;1.00;;;1.00;;
10029;SDS011;5055;52.054;8.524;2024-03-08T06:20:19;1.07;;;1.07;;
10029;SDS011;5055;52.054;8.524;2024-03-08T06:22:54;0.87;;;0.87;;
10029;SDS011;5055;52.054;8.524;2024-03-08T06:25:22;0.87;;;0.87;;
10029;SDS011;5055;52.054;8.524;2024-03-08T06:27:50;1.00;;;1.00;;
10029;SDS011;5055;52.054;8.524;2024-03-08T06:30:21;0.87;;;0.87;;
10029;SDS011;5055;52.054;8.524;2024-03-08T06:32:49;0.80;;;0.80;;
10029;SDS011;5055;52.054;8.524;2024-03-08T06:35:17;0.77;;;0.77;;
10029;SDS011;5055;52.054;8.524;2024-03-08T06:37:46;0.70;;;0.70;;
10029;SDS011;5055;52.054;8.524;2024-03-08T06:40:16;0.83;;;0.83;;
10029;SDS011;5055;52.054;8.524;2024-03-08T06:42:44;0.73;;;0.73;;
10029;SDS011;5055;52.054;8.524;2024-03-08T06:45:14;1.17;;;1.17;;
10029;SDS011;5055;52.054;8.524;2024-03-08T06:47:47;1.03;;;1.03;;
10029;SDS011;5055;52.054;8.524;2024-03-08T06:50:15;1.30;;;1.30;;
10029;SDS011;5055;52.054;8.524;2024-03-08T06:52:43;0.70;;;0.70;;
10029;SDS011;5055;52.054;8.524;2024-03-08T06:55:15;0.83;;;0.83;;
10029;SDS011;5055;52.054;8.524;2024-03-08T06:57:43;0.60;;;0.60;;
10029;SDS011;5055;52.054;8.524;2024-03-08T07:00:12;0.90;;;0.90;;
10029;SDS011;5055;52.054;8.524;2024-03-08T07:02:45;0.70;;;0.70;;
10029;SDS011;5055;52.054;8.524;2024-03-08T07:05:15;0.90;;;0.90;;
10029;SDS011;5055;52.054;8.524;2024-03-08T07:07:44;0.80;;;0.80;;
10029;SDS011;5055;52.054;8.524;2024-03-08T07:10:16;0.83;;;0.83;;
10029;SDS011;5055;52.054;8.524;2024-03-08T07:12:45;1.03;;;1.03;;
10029;SDS011;5055;52.054;8.524;2024-03-08T07:15:14;0.70;;;0.70;;
10029;SDS011;5055;52.054;8.524;2024-03-08T07:17:42;0.87;;;0.87;;
10029;SDS011;5055;52.054;8.524;2024-03-08T07:20:12;1.00;;;1.00;;
10029;SDS011;5055;52.054;8.524;2024-03-08T07:22:42;0.50;;;0.50;;
10029;SDS011;5055;52.054;8.524;2024-03-08T07:25:15;0.90;;;0.90;;
10029;SDS011;5055;52.054;8.524;2024-03-08T07:27:55;0.80;;;0.80;;
10029;SDS011;5055;52.054;8.524;2024-03-08T07:30:24;0.70;;;0.70;;
10029;SDS011;5055;52.054;8.524;2024-03-08T07:33:11;0.63;;;0.63;;
10029;SDS011;5055;52.054;8.524;2024-03-08T07:35:40;0.70;;;0.70;;
10029;SDS011;5055;52.054;8.524;2024-03-08T07:38:10;0.60;;;0.60;;
10029;SDS011;5055;52.054;8.524;2024-03-08T07:40:40;0.73;;;0.73;;
10029;SDS011;5055;52.054;8.524;2024-03-08T07:43:11;0.67;;;0.67;;
10029;SDS011;5055;52.054;8.524;2024-03-08T07:45:39;1.33;;;1.33;;
10029;SDS011;5055;52.054;8.524;2024-03-08T07:48:07;0.50;;;0.50;;
10029;SDS011;5055;52.054;8.524;2024-03-08T07:50:37;0.70;;;0.70;;
10029;SDS011;5055;52.054;8.524;2024-03-08T07:53:06;0.40;;;0.40;;
10029;SDS011;5055;52.054;8.524;2024-03-08T07:55:35;0.63;;;0.63;;
10029;SDS011;5055;52.054;8.524;2024-03-08T07:58:05;0.70;;;0.70;;
10029;SDS011;5055;52.054;8.524;2024-03-08T08:00:33;0.47;;;0.47;;
10029;SDS011;5055;52.054;8.524;2024-03-08T08:03:02;0.77;;;0.77;;
10029;SDS011;5055;52.054;8.524;2024-03-08T08:05:31;0.60;;;0.60;;
10029;SDS011;5055;52.054;8.524;2024-03-08T08:08:01;0.70;;;0.70;;
10029;SDS011;5055;52.054;8.524;2024-03-08T08:10:32;0.60;;;0.60;;
10029;SDS011;5055;52.054;8.524;2024-03-08T08:13:05;0.80;;;0.80;;
10029;SDS011;5055;52.054;8.524;2024-03-08T08:15:33;0.73;;;0.73;;
10029;SDS011;5055;52.054;8.524;2024-03-08T08:18:02;0.80;;;0.80;;
10029;SDS011;5055;52.054;8.524;2024-03-08T08:20:33;0.73;;;0.73;;
10029;SDS011;5055;52.054;8.524;2024-03-08T08:23:01;0.70;;;0.70;;
10029;SDS011;5055;52.054;8.524;2024-03-08T08:25:29;0.80;;;0.80;;
10029;SDS011;5055;52.054;8.524;2024-03-08T08:27:57;0.60;;;0.60;;
10029;SDS011;5055;52.054;8.524;2024-03-08T08:30:27;0.67;;;0.67;;
10029;SDS011;5055;52.054;8.524;2024-03-08T08:32:55;0.67;;;0.67;;
10029;SDS011;5055;52.054;8.524;2024-03-08T08:35:27;0.50;;;0.50;;
10029;SDS011;5055;52.054;8.524;2024-03-08T08:37:55;0.60;;;0.60;;
10029;SDS011;5055;52.054;8.524;2024-03-08T08:40:25;0.40;;;0.40;;
10029;SDS011;5055;52.054;8.524;2024-03-08T08:42:55;0.53;;;0.53;;
10029;SDS011;5055;52.054;8.524;2024-03-08T08:45:23;0.77;;;0.77;;
10029;SDS011;5055;52.054;8.524;2024-03-08T08:47:54;0.50;;;0.50;;
10029;SDS011;5055;52.054;8.524;2024-03-08T08:50:22;0.50;;;0.50;;
10029;SDS011;5055;52.054;8.524;2024-03-08T08:52:51;0.70;;;0.70;;
10029;SDS011;5055;52.054;8.524;2024-03-08T08:55:20;0.40;;;0.40;;
10029;SDS011;5055;52.054;8.524;2024-03-08T08:57:53;0.60;;;0.60;;
10029;SDS011;5055;52.054;8.524;2024-03-08T09:00:22;0.50;;;0.50;;
10029;SDS011;5055;52.054;8.524;2024-03-08T09:02:55;0.50;;;0.50;;
10029;SDS011;5055;52.054;8.524;2024-03-08T09:05:24;0.50;;;0.50;;
10029;SDS011;5055;52.054;8.524;2024-03-08T09:07:53;0.60;;;0.60;;
10029;SDS011;5055;52.054;8.524;2024-03-08T09:10:21;0.50;;;0.50;;
10029;SDS011;5055;52.054;8.524;2024-03-08T09:12:54;0.70;;;0.70;;
10029;SDS011;5055;52.054;8.524;2024-03-08T09:15:23;0.90;;;0.90;;
10029;SDS011;5055;52.054;8.524;2024-03-08T09:17:53;0.60;;;0.60;;
10029;SDS011;5055;52.054;8.524;2024-03-08T09:20:23;0.70;;;0.70;;
10029;SDS011;5055;52.054;8.524;2024-03-08T09:22:51;0.67;;;0.67;;
10029;SDS011;5055;52.054;8.524;2024-03-08T09:25:19;0.40;;;0.40;;
10029;SDS011;5055;52.054;8.524;2024-03-08T09:27:48;0.50;;;0.50;;
10029;SDS011;5055;52.054;8.524;2024-03-08T09:30:17;0.40;;;0.40;;
10029;SDS011;5055;52.054;8.524;2024-03-08T09:32:46;0.70;;;0.70;;
10029;SDS011;5055;52.054;8.524;2024-03-08T09:35:15;0.70;;;0.70;;
10029;SDS011;5055;52.054;8.524;2024-03-08T09:37:44;0.60;;;0.60;;
10029;SDS011;5055;52.054;8.524;2024-03-08T09:40:13;0.80;;;0.80;;
10029;SDS011;5055;52.054;8.524;2024-03-08T09:42:42;0.50;;;0.50;;
10029;SDS011;5055;52.054;8.524;2024-03-08T09:45:10;0.50;;;0.50;;
10029;SDS011;5055;52.054;8.524;2024-03-08T09:47:42;0.47;;;0.47;;
10029;SDS011;5055;52.054;8.524;2024-03-08T09:50:11;0.40;;;0.40;;
10029;SDS011;5055;52.054;8.524;2024-03-08T09:52:41;0.40;;;0.40;;
10029;SDS011;5055;52.054;8.524;2024-03-08T09:55:10;0.50;;;0.50;;
10029;SDS011;5055;52.054;8.524;2024-03-08T09:57:39;0.50;;;0.50;;
10029;SDS011;5055;52.054;8.524;2024-03-08T10:00:09;0.50;;;0.50;;
10029;SDS011;5055;52.054;8.524;2024-03-08T10:02:51;0.60;;;0.60;;
10029;SDS011;5055;52.054;8.524;2024-03-08T10:05:20;0.53;;;0.53;;
10029;SDS011;5055;52.054;8.524;2024-03-08T10:07:50;0.60;;;0.60;;
10029;SDS011;5055;52.054;8.524;2024-03-08T10:10:19;0.30;;;0.30;;
10029;SDS011;5055;52.054;8.524;2024-03-08T10:12:48;0.40;;;0.40;;
10029;SDS011;5055;52.054;8.524;2024-03-08T10:15:16;0.50;;;0.50;;
10029;SDS011;5055;52.054;8.524;2024-03-08T10:17:46;0.60;;;0.60;;
10029;SDS011;5055;52.054;8.524;2024-03-08T10:20:15;0.60;;;0.60;;
10029;SDS011;5055;52.054;8.524;2024-03-08T10:22:44;0.63;;;0.63;;
10029;SDS011;5055;52.054;8.524;2024-03-08T10:25:33;0.60;;;0.60;;
10029;SDS011;5055;52.054;8.524;2024-03-08T10:28:02;0.60;;;0.60;;
10029;SDS011;5055;52.054;8.524;2024-03-08T10:30:32;0.50;;;0.50;;
10029;SDS011;5055;52.054;8.524;2024-03-08T10:33:00;0.40;;;0.40;;
10029;SDS011;5055;52.054;8.524;2024-03-08T10:35:32;0.57;;;0.57;;
10029;SDS011;5055;52.054;8.524;2024-03-08T10:38:00;0.40;;;0.40;;
10029;SDS011;5055;52.054;8.524;2024-03-08T10:40:35;0.50;;;0.50;;
10029;SDS011;5055;52.054;8.524;2024-03-08T10:43:08;0.33;;;0.33;;
10029;SDS011;5055;52.054;8.524;2024-03-08T10:45:44;0.50;;;0.50;;
10029;SDS011;5055;52.054;8.524;2024-03-08T10:48:20;0.43;;;0.43;;
10029;SDS011;5055;52.054;8.524;2024-03-08T10:51:02;0.30;;;0.30;;
10029;SDS011;5055;52.054;8.524;2024-03-08T10:53:33;0.30;;;0.30;;
10029;SDS011;5055;52.054;8.524;2024-03-08T10:56:05;0.40;;;0.40;;
10029;SDS011;5055;52.054;8.524;2024-03-08T10:58:33;0.50;;;0.50;;
10029;SDS011;5055;52.054;8.524;2024-03-08T11:01:04;0.40;;;0.40;;
10029;SDS011;5055;52.054;8.524;2024-03-08T11:03:46;0.47;;;0.47;;
10029;SDS011;5055;52.054;8.524;2024-03-08T11:06:22;0.50;;;0.50;;
10029;SDS011;5055;52.054;8.524;2024-03-08T11:08:58;0.50;;;0.50;;
10029;SDS011;5055;52.054;8.524;2024-03-08T11:11:28;0.50;;;0.50;;
10029;SDS011;5055;52.054;8.524;2024-03-08T11:14:00;0.50;;;0.50;;
10029;SDS011;5055;52.054;8.524;2024-03-08T11:16:37;0.50;;;0.50;;
10029;SDS011;5055;52.054;8.524;2024-03-08T11:19:25;0.40;;;0.40;;
10029;SDS011;5055;52.054;8.524;2024-03-08T11:21:58;0.50;;;0.50;;
10029;SDS011;5055;52.054;8.524;2024-03-08T11:24:27;0.43;;;0.43;;
10029;SDS011;5055;52.054;8.524;2024-03-08T11:26:57;0.50;;;0.50;;
10029;SDS011;5055;52.054;8.524;2024-03-08T11:29:33;0.57;;;0.57;;
10029;SDS011;5055;52.054;8.524;2024-03-08T11:32:04;0.47;;;0.47;;
10029;SDS011;5055;52.054;8.524;2024-03-08T11:34:36;0.50;;;0.50;;
10029;SDS011;5055;52.054;8.524;2024-03-08T11:37:05;0.40;;;0.40;;
10029;SDS011;5055;52.054;8.524;2024-03-08T11:39:39;0.40;;;0.40;;
10029;SDS011;5055;52.054;8.524;2024-03-08T11:42:08;0.47;;;0.47;;
10029;SDS011;5055;52.054;8.524;2024-03-08T11:44:37;0.50;;;0.50;;
10029;SDS011;5055;52.054;8.524;2024-03-08T11:47:09;0.60;;;0.60;;
10029;SDS011;5055;52.054;8.524;2024-03-08T11:49:38;0.50;;;0.50;;
10029;SDS011;5055;52.054;8.524;2024-03-08T11:52:10;0.33;;;0.33;;
10029;SDS011;5055;52.054;8.524;2024-03-08T11:54:40;0.30;;;0.30;;
10029;SDS011;5055;52.054;8.524;2024-03-08T11:57:09;0.40;;;0.40;;
10029;SDS011;5055;52.054;8.524;2024-03-08T11:59:38;0.30;;;0.30;;
10029;SDS011;5055;52.054;8.524;2024-03-08T12:02:06;0.30;;;0.30;;
10029;SDS011;5055;52.054;8.524;2024-03-08T12:04:36;0.30;;;0.30;;
10029;SDS011;5055;52.054;8.524;2024-03-08T12:07:05;0.30;;;0.30;;
10029;SDS011;5055;52.054;8.524;2024-03-08T12:09:38;0.40;;;0.40;;
10029;SDS011;5055;52.054;8.524;2024-03-08T12:12:07;0.40;;;0.40;;
10029;SDS011;5055;52.054;8.524;2024-03-08T12:14:37;0.40;;;0.40;;
10029;SDS011;5055;52.054;8.524;2024-03-08T12:17:05;0.53;;;0.53;;
10029;SDS011;5055;52.054;8.524;2024-03-08T12:19:35;0.20;;;0.20;;
10029;SDS011;5055;52.054;8.524;2024-03-08T12:22:08;0.30;;;0.30;;
10029;SDS011;5055;52.054;8.524;2024-03-08T12:24:37;0.30;;;0.30;;
10029;SDS011;5055;52.054;8.524;2024-03-08T12:27:17;0.40;;;0.40;;
10029;SDS011;5055;52.054;8.524;2024-03-08T12:29:47;0.30;;;0.30;;
10029;SDS011;5055;52.054;8.524;2024-03-08T12:32:17;0.40;;;0.40;;
10029;SDS011;5055;52.054;8.524;2024-03-08T12:34:51;0.30;;;0.30;;
10029;SDS011;5055;52.054;8.524;2024-03-08T12:37:20;0.30;;;0.30;;
10029;SDS011;5055;52.054;8.524;2024-03-08T12:39:49;0.30;;;0.30;;
10029;SDS011;5055;52.054;8.524;2024-03-08T12:42:17;0.37;;;0.37;;
10029;SDS011;5055;52.054;8.524;2024-03-08T12:44:47;0.40;;;0.40;;
10029;SDS011;5055;52.054;8.524;2024-03-08T12:47:15;0.40;;;0.40;;
10029;SDS011;5055;52.054;8.524;2024-03-08T12:49:45;0.30;;;0.30;;
10029;SDS011;5055;52.054;8.524;2024-03-08T12:52:13;0.30;;;0.30;;
10029;SDS011;5055;52.054;8.524;2024-03-08T12:54:44;0.30;;;0.30;;
10029;SDS011;5055;52.054;8.524;2024-03-08T12:57:14;0.43;;;0.43;;
10029;SDS011;5055;52.054;8.524;2024-03-08T12:59:42;0.43;;;0.43;;
10029;SDS011;5055;52.054;8.524;2024-03-08T13:02:12;0.33;;;0.33;;
10029;SDS011;5055;52.054;8.524;2024-03-08T13:04:43;0.30;;;0.30;;
10029;SDS011;5055;52.054;8.524;2024-03-08T13:07:12;0.30;;;0.30;;
10029;SDS011;5055;52.054;8.524;2024-03-08T13:09:43;0.40;;;0.40;;
10029;SDS011;5055;52.054;8.524;2024-03-08T13:12:12;0.40;;;0.40;;
10029;SDS011;5055;52.054;8.524;2024-03-08T13:14:41;0.30;;;0.30;;
10029;SDS011;5055;52.054;8.524;2024-03-08T13:17:09;0.30;;;0.30;;
10029;SDS011;5055;52.054;8.524;2024-03-08T13:19:40;0.30;;;0.30;;
10029;SDS011;5055;52.054;8.524;2024-03-08T13:22:09;0.37;;;0.37;;
10029;SDS011;5055;52.054;8.524;2024-03-08T13:24:39;0.40;;;0.40;;
10029;SDS011;5055;52.054;8.524;2024-03-08T13:27:08;0.30;;;0.30;;
10029;SDS011;5055;52.054;8.524;2024-03-08T13:29:46;0.20;;;0.20;;
10029;SDS011;5055;52.054;8.524;2024-03-08T13:32:16;0.20;;;0.20;;
10029;SDS011;5055;52.054;8.524;2024-03-08T13:34:48;0.20;;;0.20;;
10029;SDS011;5055;52.054;8.524;2024-03-08T13:37:18;0.30;;;0.30;;
10029;SDS011;5055;52.054;8.524;2024-03-08T13:39:46;0.20;;;0.20;;
10029;SDS011;5055;52.054;8.524;2024-03-08T13:42:14;0.20;;;0.20;;
10029;SDS011;5055;52.054;8.524;2024-03-08T13:44:44;0.20;;;0.20;;
10029;SDS011;5055;52.054;8.524;2024-03-08T13:47:13;0.20;;;0.20;;
10029;SDS011;5055;52.054;8.524;2024-03-08T13:49:41;0.30;;;0.30;;
10029;SDS011;5055;52.054;8.524;2024-03-08T13:52:11;0.20;;;0.20;;
10029;SDS011;5055;52.054;8.524;2024-03-08T13:54:42;0.23;;;0.23;;
10029;SDS011;5055;52.054;8.524;2024-03-08T13:57:10;0.20;;;0.20;;
10029;SDS011;5055;52.054;8.524;2024-03-08T13:59:38;0.20;;;0.20;;
10029;SDS011;5055;52.054;8.524;2024-03-08T14:02:06;0.20;;;0.20;;
10029;SDS011;5055;52.054;8.524;2024-03-08T14:04:39;0.20;;;0.20;;
10029;SDS011;5055;52.054;8.524;2024-03-08T14:07:09;0.20;;;0.20;;
10029;SDS011;5055;52.054;8.524;2024-03-08T14:09:38;0.20;;;0.20;;
10029;SDS011;5055;52.054;8.524;2024-03-08T14:12:09;0.20;;;0.20;;
10029;SDS011;5055;52.054;8.524;2024-03-08T14:14:37;0.20;;;0.20;;
10029;SDS011;5055;52.054;8.524;2024-03-08T14:17:06;0.20;;;0.20;;
10029;SDS011;5055;52.054;8.524;2024-03-08T14:19:36;0.20;;;0.20;;
10029;SDS011;5055;52.054;8.524;2024-03-08T14:22:05;0.20;;;0.20;;
10029;SDS011;5055;52.054;8.524;2024-03-08T14:24:33;0.20;;;0.20;;
10029;SDS011;5055;52.054;8.524;2024-03-08T14:27:03;0.27;;;0.27;;
10029;SDS011;5055;52.054;8.524;2024-03-08T14:29:34;0.20;;;0.20;;
10029;SDS011;5055;52.054;8.524;2024-03-08T14:32:03;0.20;;;0.20;;
10029;SDS011;5055;52.054;8.524;2024-03-08T14:34:32;0.20;;;0.20;;
10029;SDS011;5055;52.054;8.524;2024-03-08T14:37:01;0.10;;;0.10;;
10029;SDS011;5055;52.054;8.524;2024-03-08T14:39:37;0.10;;;0.10;;
10029;SDS011;5055;52.054;8.524;2024-03-08T14:42:07;0.20;;;0.20;;
10029;SDS011;5055;52.054;8.524;2024-03-08T14:44:39;0.20;;;0.20;;
10029;SDS011;5055;52.054;8.524;2024-03-08T14:47:07;0.20;;;0.20;;
10029;SDS011;5055;52.054;8.524;2024-03-08T14:49:36;0.20;;;0.20;;
10029;SDS011;5055;52.054;8.524;2024-03-08T14:52:05;0.10;;;0.10;;
10029;SDS011;5055;52.054;8.524;2024-03-08T14:54:53;0.20;;;0.20;;
10029;SDS011;5055;52.054;8.524;2024-03-08T14:57:23;0.20;;;0.20;;
10029;SDS011;5055;52.054;8.524;2024-03-08T14:59:51;0.20;;;0.20;;
10029;SDS011;5055;52.054;8.524;2024-03-08T15:02:19;0.20;;;0.20;;
10029;SDS011;5055;52.054;8.524;2024-03-08T15:04:48;0.30;;;0.30;;
10029;SDS011;5055;52.054;8.524;2024-03-08T15:07:23;0.20;;;0.20;;
10029;SDS011;5055;52.054;8.524;2024-03-08T15:09:52;0.17;;;0.17;;
10029;SDS011;5055;52.054;8.524;2024-03-08T15:12:23;0.20;;;0.20;;
10029;SDS011;5055;52.054;8.524;2024-03-08T15:14:52;0.20;;;0.20;;